Tiempo atmosférico en la estación meteorológica de Tresviso, Cantabria (912 m.)



Fecha
DESCASC
Temp. máxima en grados centígrados (hora)
DESCASC
Temp. mínima en grados centígrados (hora)
DESCASC
Temp. media en grados centígrados
DESCASC
Racha de viento máxima en m/sg (hora)
DESCASC
Velocidad máxima media en intervalos de 10 minutos(hora)
DESCASC
Precipitaciones diarias en mm
DESCASC
Precipitaciones de 00:00 a 06:00 en mm
DESCASC
Precipitaciones de 06:00 a 12:00 en mm
DESCASC
Precipitaciones de 12:00 a 18:00 en mm
DESCASC
Precipitaciones de 18:00 a 24:00 en mm
DESCASC
14-02-2019 17.6 (14:40) 8.5 (00:00) 13.1 5.28 (12:40) 2.78 (15:30) 0 0 0 0 0
13-02-2019 15.4 (16:10) 7.9 (00:10) 11.6 6.11 (08:00) 3.33 (07:30) 0 0 0 0 0
12-02-2019 12 (16:10) 1.5 (01:20) 6.8 2.78 (22:40) 1.94 (08:30) 0 0 0 0 0
11-02-2019 9.4 (15:10) 1.8 (08:50) 5.6 10.56 (00:10) 6.67 (00:20) 0 0 0 0 0
10-02-2019 11.9 (08:20) 2.3 (00:00) 7.1 16.39 (08:10) 7.5 (18:10) 4.8 0 1.2 2.4 1.2
09-02-2019 11.4 (16:50) 5.1 (00:00) 8.2 6.67 (01:00) 5 (01:20) 0 0 0 0 0
08-02-2019 10.3 (16:20) 2.8 (00:00) 6.6 4.72 (14:30) 3.33 (20:20) 0 0 0 0 0
07-02-2019 8.2 (00:20) 2.8 (00:00) 5.5 7.5 (06:20) 4.72 (04:00) 0.2 0 0.2 0 0
06-02-2019 13.7 (15:00) 5.9 (00:00) 9.8 3.61 (23:59) 2.5 (23:59) 0 0 0 0 0
05-02-2019 11.2 (16:40) 5 (00:00) 8.1 6.39 (04:30) 4.17 (00:10) -- -- -- 0 0
04-02-2019 9.6 (14:50) -0.2 (00:00) 4.7 10.28 (18:20) 6.11 (20:30) -- -- -- -- --
03-02-2019 4.5 (16:30) -1.1 (-00:0) 1.7 13.61 (02:30) 7.78 (05:30) -- -- -- -- --
02-02-2019 0.5 (00:00) -1.8 (-00:0) -0.6 25 (07:00) 15.56 (06:00) -- -- -- -- --
01-02-2019 5 (06:50) 0.5 (00:00) 2.8 23.61 (21:30) 13.61 (21:30) -- -- -- -- --
31-01-2019 12.3 (14:40) 4.9 (00:00) 8.6 14.17 (04:00) 8.61 (03:50) 15.8 7.8 2 4 2
30-01-2019 6.8 (22:30) 0.6 (00:00) 3.7 16.11 (02:20) 10.56 (00:40) -- -- 0 1 7
29-01-2019 7.9 (11:30) 0.2 (00:00) 4.1 28.89 (14:20) 15.83 (20:00) -- -- -- -- 2.8
28-01-2019 5.5 (08:10) 1.9 (00:00) 3.7 31.11 (09:00) 16.11 (16:20) -- -- -- -- --
27-01-2019 8.5 (00:30) 1.1 (00:00) 4.8 24.44 (11:20) 15 (11:20) -- -- -- -- --
26-01-2019 12 (15:20) 1.8 (00:00) 6.9 10.56 (23:59) 5.28 (18:20) -- -- -- -- --
25-01-2019 7.3 (14:40) 3.9 (00:00) 5.6 16.11 (10:10) 10 (04:30) -- -- -- -- --
24-01-2019 7.1 (08:40) 5.8 (00:00) 6.5 18.89 (00:30) 12.5 (00:20) 63.8 28.2 23.2 9.6 2.8
23-01-2019 6 (06:40) 2.3 (00:00) 4.1 28.61 (04:50) 17.78 (04:50) 80.2 20.4 21.4 17.4 21
22-01-2019 3.7 (08:00) 0.8 (00:00) 2.3 17.22 (11:50) 10 (12:10) 40.4 0 8.6 10 21.8
21-01-2019 4.8 (14:30) 0.8 (00:00) 2.8 11.39 (01:50) 6.94 (19:50) 15.2 8.2 7 0 0
20-01-2019 3.9 (14:10) 1.6 (00:00) 2.8 17.78 (10:50) 9.72 (08:30) 42.6 16 6.8 9.4 10.4
19-01-2019 4.2 (12:40) 1 (00:00) 2.6 9.72 (03:10) 4.72 (03:10) 19.6 1 0 11.8 6.8

Gráficas

Temp. máximas Temp. mínimas Temp. medias Precipitaciones Rachas de viento máximas Velocidades máximas media en intervalos de 10 minutos

Datos horarios

Fecha y hora oficial Temperatura (ºC) Velocidad del viento (km/h) Dirección del viento Racha (km/h) Dirección de racha Precipitación (mm) Presión (hPa) Tendencia (hPa) Humedad (%)
2019-02-17 23:00:00 8.8 2 Oeste 8 Norte 0 -- -- 43
2019-02-17 22:00:00 9 2 Norte 9 Norte 0 -- -- 43
2019-02-17 21:00:00 9.2 7 Norte 11 Norte 0 -- -- 42
2019-02-17 20:00:00 9.4 3 Norte 7 Norte 0 -- -- 41
2019-02-17 19:00:00 9.9 3 Este 16 Nordeste 0 -- -- 41
2019-02-17 18:00:00 10.9 16 Nordeste 26 Nordeste 0 -- -- 37
2019-02-17 17:00:00 12.8 13 Nordeste 21 Este 0 -- -- 35
2019-02-17 16:00:00 15.5 5 Sudeste 22 Sur 0 -- -- 30
2019-02-17 15:00:00 16.3 14 Sudoeste 23 Sur 0 -- -- 27
2019-02-17 14:00:00 16.5 7 Sudeste 19 Sur 0 -- -- 30
2019-02-17 13:00:00 14.8 8 Este 19 Sur 0 -- -- 28
2019-02-17 12:00:00 14.6 5 Este 13 Sudeste 0 -- -- 32
2019-02-17 11:00:00 12.4 5 Este 13 Este 0 -- -- 36
2019-02-17 10:00:00 11.3 4 Este 13 Nordeste 0 -- -- 38
2019-02-17 09:00:00 9.5 8 Nordeste 15 Este 0 -- -- 41
2019-02-17 08:00:00 9.3 7 Nordeste 14 Norte 0 -- -- 39
2019-02-17 07:00:00 9.2 8 Nordeste 15 Nordeste 0 -- -- 41
2019-02-17 06:00:00 9.5 12 Nordeste 23 Nordeste 0 -- -- 39
2019-02-17 05:00:00 9.2 11 Nordeste 19 Nordeste 0 -- -- 42
2019-02-17 04:00:00 9.6 8 Nordeste 19 Nordeste 0 -- -- 40
2019-02-17 03:00:00 10.1 13 Nordeste 19 Nordeste 0 -- -- 39
2019-02-17 02:00:00 11.3 7 Norte 14 Noroeste 0 -- -- 30
2019-02-17 01:00:00 11 5 Nordeste 16 Noroeste 0 -- -- 34
2019-02-17 00:00:00 12.8 14 Noroeste 22 Norte 0 -- -- 27
2019-02-16 23:00:00 11 8 Nordeste 17 Nordeste 0 -- -- 31
2019-02-16 22:00:00 10.7 6 Nordeste 13 Nordeste 0 -- -- 39
2019-02-16 21:00:00 10.9 6 Nordeste 17 Nordeste 0 -- -- 40
2019-02-16 20:00:00 11.4 6 Nordeste 14 Nordeste 0 -- -- 41
2019-02-16 19:00:00 12.8 4 Nordeste 10 Sudoeste 0 -- -- 38
2019-02-16 18:00:00 16.7 6 Sur 20 Sur 0 -- -- 24
2019-02-16 17:00:00 18 8 Sur 21 Norte 0 -- -- 25
2019-02-16 16:00:00 18.6 7 Sur 18 Sudeste 0 -- -- 25
2019-02-16 15:00:00 17.6 6 Sudeste 17 Sudeste 0 -- -- 28
2019-02-16 14:00:00 15.8 5 Este 10 Este 0 -- -- 27
2019-02-16 13:00:00 15.1 5 Este 13 Sudeste 0 -- -- 30
2019-02-16 12:00:00 13.6 7 Este 10 Este 0 -- -- 30
2019-02-16 11:00:00 13.5 4 Este 6 Nordeste 0 -- -- 30
2019-02-16 10:00:00 12 3 Este 5 Nordeste 0 -- -- 34
2019-02-16 09:00:00 9.9 2 Nordeste 9 Nordeste 0 -- -- 35
2019-02-16 08:00:00 9.2 6 Nordeste 10 Norte 0 -- -- 37
2019-02-16 07:00:00 8.9 5 Norte 9 Norte 0 -- -- 40
2019-02-16 06:00:00 9.2 5 Norte 12 Norte 0 -- -- 38
2019-02-16 05:00:00 9.7 3 Norte 11 Norte 0 -- -- 37
2019-02-16 04:00:00 10 7 Norte 10 Norte 0 -- -- 35
2019-02-16 03:00:00 10.3 5 Norte 9 Norte 0 -- -- 37
2019-02-16 02:00:00 10.7 8 Norte 11 Norte 0 -- -- 36
2019-02-16 01:00:00 10.7 0 Calma 12 Norte 0 -- -- 37
2019-02-16 00:00:00 11.2 7 Norte 10 Norte 0 -- -- 37
2019-02-15 23:00:00 11.1 5 Norte 10 Norte 0 -- -- 37
2019-02-15 22:00:00 11.3 6 Norte 10 Norte 0 -- -- 36
2019-02-15 21:00:00 11.6 7 Norte 12 Norte 0 -- -- 36
2019-02-15 20:00:00 11.8 8 Norte 14 Norte 0 -- -- 37
2019-02-15 19:00:00 12.4 6 Norte 11 Norte 0 -- -- 37
2019-02-15 18:00:00 14.9 4 Sudoeste 9 Sudoeste 0 -- -- 35
2019-02-15 17:00:00 17.4 5 Sur 10 Sudoeste 0 -- -- 34
2019-02-15 16:00:00 17.6 6 Sur 13 Sur 0 -- -- 33
2019-02-15 15:00:00 17.8 8 Sudoeste 12 Sur 0 -- -- 30
2019-02-15 14:00:00 16.8 3 Sudeste 8 Sur 0 -- -- 27
2019-02-15 13:00:00 16.9 3 Sudeste 9 Sur 0 -- -- 26
2019-02-15 12:00:00 16.6 4 Sur 9 Sur 0 -- -- 29
2019-02-15 11:00:00 14.4 3 Este 5 Sudoeste 0 -- -- 31
2019-02-15 10:00:00 13.1 0 Calma 4 Sudoeste 0 -- -- 31
2019-02-15 09:00:00 10.7 3 Sudoeste 10 Norte 0 -- -- 31
2019-02-15 08:00:00 10.1 6 Norte 9 Norte 0 -- -- 33
2019-02-15 07:00:00 10.7 0 Calma 10 Norte 0 -- -- 29
2019-02-15 06:00:00 10.6 8 Norte 12 Norte 0 -- -- 31
2019-02-15 05:00:00 10.5 3 Nordeste 9 Oeste 0 -- -- 30
2019-02-15 04:00:00 11 6 Oeste 12 Norte 0 -- -- 28
2019-02-15 03:00:00 10.7 5 Nordeste 14 Nordeste 0 -- -- 30
2019-02-15 02:00:00 10.2 8 Norte 14 Nordeste 0 -- -- 32
2019-02-15 01:00:00 10.9 8 Nordeste 14 Nordeste 0 -- -- 29
2019-02-15 00:00:00 10.9 8 Nordeste 13 Nordeste 0 -- -- 31
2019-02-14 23:00:00 10.9 8 Nordeste 12 Nordeste 0 -- -- 32
2019-02-14 22:00:00 10.8 8 Nordeste 12 Nordeste 0 -- -- 34
2019-02-14 21:00:00 11.2 8 Nordeste 14 Nordeste 0 -- -- 36
2019-02-14 20:00:00 12.2 6 Nordeste 11 Sudeste 0 -- -- 33
2019-02-14 19:00:00 13.1 4 Nordeste 8 Este 0 -- -- 32
2019-02-14 18:00:00 15.7 5 Sudoeste 8 Sur 0 -- -- 31
2019-02-14 17:00:00 16.3 3 Este 10 Este 0 -- -- 30
2019-02-14 16:00:00 16.8 5 Este 16 Este 0 -- -- 30
2019-02-14 15:00:00 17.2 7 Este 17 Sudeste 0 -- -- 31
2019-02-14 14:00:00 16.2 5 Este 14 Nordeste 0 -- -- 31
2019-02-14 13:00:00 14.5 8 Este 19 Este 0 -- -- 32
2019-02-14 12:00:00 13.3 5 Este 12 Este 0 -- -- 33
2019-02-14 11:00:00 12.8 6 Este 14 Nordeste 0 -- -- 30
2019-02-14 10:00:00 11.4 6 Nordeste 12 Este 0 -- -- 32
2019-02-14 09:00:00 9.6 7 Nordeste 11 Nordeste 0 -- -- 34
2019-02-14 08:00:00 8.8 7 Nordeste 14 Nordeste 0 -- -- 34
2019-02-14 07:00:00 8.8 5 Nordeste 12 Nordeste 0 -- -- 31
2019-02-14 06:00:00 9.1 7 Nordeste 12 Nordeste 0 -- -- 30
2019-02-14 05:00:00 8.8 4 Nordeste 10 Norte 0 -- -- 34
2019-02-14 04:00:00 9.1 4 Nordeste 14 Nordeste 0 -- -- 34
2019-02-14 03:00:00 9.1 8 Nordeste 14 Nordeste 0 -- -- 33
2019-02-14 02:00:00 8.7 4 Nordeste 13 Nordeste 0 -- -- 39
2019-02-14 01:00:00 8.6 5 Nordeste 12 Este 0 -- -- 42
2019-02-14 00:00:00 8.5 2 Sudoeste 6 Norte 0 -- -- 49
2019-02-13 23:00:00 8.6 0 Calma 6 Norte 0 -- -- 50
2019-02-13 22:00:00 8.9 2 Nordeste 8 Norte 0 -- -- 50
2019-02-13 21:00:00 8.8 3 Norte 7 Norte 0 -- -- 49
2019-02-13 20:00:00 9.3 3 Norte 5 Norte 0 -- -- 47
2019-02-13 19:00:00 10.2 0 Calma 3 Sur 0 -- -- 49
2019-02-13 18:00:00 13.5 0 Calma 8 Sur 0 -- -- 40
2019-02-13 17:00:00 14.3 4 Sur 10 Sur 0 -- -- 35
2019-02-13 16:00:00 15.1 3 Sur 9 Sur 0 -- -- 31
2019-02-13 15:00:00 14.7 3 Sur 9 Sudoeste 0 -- -- 29
2019-02-13 14:00:00 14.8 5 Sur 12 Sudoeste 0 -- -- 32
2019-02-13 13:00:00 14.9 5 Sur 10 Sur 0 -- -- 29
2019-02-13 12:00:00 13.9 4 Sur 8 Sur 0 -- -- 30
2019-02-13 11:00:00 12.9 3 Sur 5 Sudeste 0 -- -- 29
2019-02-13 10:00:00 10.9 0 Calma 6 Este 0 -- -- 29
2019-02-13 09:00:00 8.5 5 Este 17 Oeste 0 -- -- 31
2019-02-13 08:00:00 10.1 9 Noroeste 22 Oeste 0 -- -- 27
2019-02-13 07:00:00 9.6 4 Oeste 14 Noroeste 0 -- -- 28
2019-02-13 06:00:00 9.5 4 Oeste 8 Oeste 0 -- -- 24
2019-02-13 05:00:00 8.3 2 Oeste 10 Oeste 0 -- -- 27
2019-02-13 04:00:00 8.4 0 Calma 3 Sudoeste 0 -- -- 26
2019-02-13 03:00:00 8.2 0 Calma 3 Nordeste 0 -- -- 29
2019-02-13 02:00:00 8.8 0 Calma 6 Norte 0 -- -- 25
2019-02-13 01:00:00 8.6 5 Norte 9 Norte 0 -- -- 27
2019-02-13 00:00:00 8.2 4 Norte 8 Norte 0 -- -- 34
2019-02-12 23:00:00 8.6 3 Noroeste 10 Noroeste 0 -- -- 33
2019-02-12 22:00:00 7.8 3 Norte 6 Norte 0 -- -- 39
2019-02-12 21:00:00 7.6 3 Nordeste 5 Nordeste 0 -- -- 57
2019-02-12 20:00:00 7.8 3 Nordeste 6 Norte 0 -- -- 53
2019-02-12 19:00:00 8.4 0 Calma 7 Nordeste 0 -- -- 52
2019-02-12 18:00:00 9.6 4 Nordeste 6 Nordeste 0 -- -- 49
2019-02-12 17:00:00 10.8 3 Este 6 Este 0 -- -- 38
2019-02-12 16:00:00 11.7 0 Calma 8 Sudoeste 0 -- -- 30
2019-02-12 15:00:00 10.7 3 Este 8 Este 0 -- -- 28
2019-02-12 14:00:00 11.7 2 Sudeste 8 Sur 0 -- -- 30
2019-02-12 13:00:00 10.2 3 Este 6 Este 0 -- -- 27
2019-02-12 12:00:00 9.2 2 Sudeste 9 Sur 0 -- -- 38
2019-02-12 11:00:00 7.3 0 Calma 7 Sudoeste 0 -- -- 53
2019-02-12 10:00:00 6.3 5 Oeste 7 Sudoeste 0 -- -- 42
2019-02-12 09:00:00 4.2 5 Oeste 8 Oeste 0 -- -- 40
2019-02-12 08:00:00 3.3 0 Calma 5 Este 0 -- -- 42
2019-02-12 07:00:00 4 3 Nordeste 6 Noroeste 0 -- -- 33
2019-02-12 06:00:00 3.2 3 Sudoeste 6 Nordeste 0 -- -- 52
2019-02-12 05:00:00 2.4 4 Norte 10 Norte 0 -- -- 67
2019-02-12 04:00:00 1.8 4 Norte 8 Norte 0 -- -- 80
2019-02-12 03:00:00 1.9 2 Nordeste 9 Nordeste 0 -- -- 84
2019-02-12 02:00:00 1.8 5 Nordeste 9 Nordeste 0 -- -- 86
2019-02-12 01:00:00 1.7 4 Nordeste 8 Nordeste 0 -- -- 88
2019-02-12 00:00:00 2.1 4 Nordeste 8 Norte 0 -- -- 85
2019-02-11 23:00:00 2.3 4 Norte 10 Norte 0 -- -- 81
2019-02-11 22:00:00 2.1 3 Norte 4 Norte 0 -- -- 85
2019-02-11 21:00:00 2.5 2 Norte 4 Sudoeste 0 -- -- 89
2019-02-11 20:00:00 3.4 3 Sudoeste 6 Oeste 0 -- -- 88
2019-02-11 19:00:00 3.5 0 Calma 15 Nordeste 0 -- -- 86
2019-02-11 18:00:00 5 7 Nordeste 14 Nordeste 0 -- -- 79
2019-02-11 17:00:00 6.3 4 Sudeste 20 Nordeste 0 -- -- 75
2019-02-11 16:00:00 8 5 Este 14 Sudoeste 0 -- -- 63
2019-02-11 15:00:00 9.2 5 Sur 15 Sur 0 -- -- 59
2019-02-11 14:00:00 6.3 3 Nordeste 20 Sudoeste 0 -- -- 67
2019-02-11 13:00:00 5.2 11 Oeste 26 Oeste 0 -- -- 68
2019-02-11 12:00:00 5.2 13 Oeste 27 Oeste 0 -- -- 68
2019-02-11 11:00:00 3.9 12 Sudoeste 22 Oeste 0 -- -- 75
2019-02-11 10:00:00 2.8 8 Oeste 18 Oeste 0 -- -- 76
2019-02-11 09:00:00 2 8 Oeste 26 Oeste 0 -- -- 76
2019-02-11 08:00:00 2 10 Noroeste 23 Oeste 0 -- -- 75
2019-02-11 07:00:00 2.6 8 Oeste 26 Oeste 0 -- -- 69
2019-02-11 06:00:00 2.4 14 Noroeste 26 Oeste 0 -- -- 70
2019-02-11 05:00:00 2.2 21 Noroeste 32 Oeste 0 -- -- 73
2019-02-11 04:00:00 2.2 17 Oeste 36 Oeste 0 -- -- 71
2019-02-11 03:00:00 2.3 12 Oeste 34 Norte 0 -- -- 74
2019-02-11 02:00:00 2.4 14 Oeste 32 Oeste 0 -- -- 73
2019-02-11 01:00:00 2.3 12 Oeste 38 Oeste 0 -- -- 78
2019-02-11 00:00:00 2.4 22 Oeste 42 Oeste 0 -- -- 80
2019-02-10 23:00:00 2.4 19 Oeste 39 Oeste 0.2 -- -- 85
2019-02-10 22:00:00 2.6 17 Oeste 29 Sudoeste 0.2 -- -- 89
2019-02-10 21:00:00 2.6 12 Oeste 27 Oeste 0.6 -- -- 90
2019-02-10 20:00:00 2.8 16 Oeste 36 Oeste 0 -- -- 89
2019-02-10 19:00:00 2.7 23 Noroeste 41 Oeste 0.2 -- -- 88
2019-02-10 18:00:00 2.8 24 Noroeste 39 Noroeste 0.4 -- -- 89
2019-02-10 17:00:00 3.3 24 Noroeste 38 Oeste 0.2 -- -- 90
2019-02-10 16:00:00 4.2 18 Oeste 28 Oeste 1.4 -- -- 90
2019-02-10 15:00:00 4.9 12 Oeste 27 Oeste 0.2 -- -- 88
2019-02-10 14:00:00 4.9 15 Oeste 35 Oeste 0 -- -- 90
2019-02-10 13:00:00 5.8 19 Sudoeste 39 Oeste 0.2 -- -- 84
2019-02-10 12:00:00 5.3 22 Oeste 37 Oeste 0.4 -- -- 86
2019-02-10 11:00:00 5.5 16 Oeste 45 Oeste 0 -- -- 88
2019-02-10 10:00:00 5.8 23 Noroeste 42 Oeste 0.6 -- -- 88
2019-02-10 09:00:00 8.7 17 Oeste 59 Oeste 0.2 -- -- 75
2019-02-10 08:00:00 11.7 18 Sudoeste 42 Sudoeste 0 -- -- 53
2019-02-10 07:00:00 9.4 7 Nordeste 33 Oeste 0 -- -- 62
2019-02-10 06:00:00 9.2 7 Norte 21 Nordeste 0 -- -- 61
2019-02-10 05:00:00 8.6 11 Nordeste 19 Este 0 -- -- 60
2019-02-10 04:00:00 8.1 8 Nordeste 18 Nordeste 0 -- -- 59
2019-02-10 03:00:00 7.9 8 Nordeste 18 Norte 0 -- -- 59
2019-02-10 02:00:00 7.3 5 Norte 13 Nordeste 0 -- -- 64
2019-02-10 01:00:00 7.3 5 Norte 13 Norte 0 -- -- 64
2019-02-10 00:00:00 7.5 4 Nordeste 14 Norte 0 -- -- 63
2019-02-09 23:00:00 7 7 Norte 15 Norte 0 -- -- 64
2019-02-09 22:00:00 7.1 7 Norte 13 Nordeste 0 -- -- 64
2019-02-09 21:00:00 7.8 6 Norte 12 Norte 0 -- -- 59
2019-02-09 20:00:00 7.8 5 Norte 14 Norte 0 -- -- 59
2019-02-09 19:00:00 8.1 5 Noroeste 10 Noroeste 0 -- -- 59
2019-02-09 18:00:00 9.3 0 Calma 9 Este 0 -- -- 56
2019-02-09 17:00:00 10.7 4 Nordeste 9 Nordeste 0 -- -- 52
2019-02-09 16:00:00 9.7 4 Noroeste 15 Sur 0 -- -- 57
2019-02-09 15:00:00 9.5 7 Nordeste 10 Este 0 -- -- 59
2019-02-09 14:00:00 9.7 3 Sur 7 Sur 0 -- -- 57
2019-02-09 13:00:00 8.8 3 Este 14 Nordeste 0 -- -- 61
2019-02-09 12:00:00 8.3 5 Nordeste 15 Nordeste 0 -- -- 63
2019-02-09 11:00:00 7.4 5 Nordeste 12 Nordeste 0 -- -- 68
2019-02-09 10:00:00 5.8 6 Norte 10 Norte 0 -- -- 73
2019-02-09 09:00:00 5.1 6 Norte 9 Norte 0 -- -- 74
2019-02-09 08:00:00 5.7 4 Norte 8 Norte 0 -- -- 72
2019-02-09 07:00:00 6 3 Norte 8 Norte 0 -- -- 70
2019-02-09 06:00:00 6.5 0 Calma 10 Noroeste 0 -- -- 72
2019-02-09 05:00:00 6.9 3 Norte 15 Oeste 0 -- -- 70
2019-02-09 04:00:00 7.8 14 Oeste 22 Oeste 0 -- -- 65
2019-02-09 03:00:00 8 15 Oeste 23 Oeste 0 -- -- 64
2019-02-09 02:00:00 8.4 13 Oeste 23 Oeste 0 -- -- 58
2019-02-09 01:00:00 8.1 17 Oeste 24 Oeste 0 -- -- 59
2019-02-09 00:00:00 7.8 4 Nordeste 14 Norte 0 -- -- 57
2019-02-08 23:00:00 7.5 7 Norte 13 Norte 0 -- -- 59
2019-02-08 22:00:00 7.1 6 Norte 16 Nordeste 0 -- -- 60
2019-02-08 21:00:00 6.9 8 Norte 17 Nordeste 0 -- -- 63
2019-02-08 20:00:00 7.6 3 Norte 13 Nordeste 0 -- -- 58
2019-02-08 19:00:00 8.1 5 Norte 10 Norte 0 -- -- 58
2019-02-08 18:00:00 8.7 5 Nordeste 12 Nordeste 0 -- -- 56
2019-02-08 17:00:00 9.2 3 Nordeste 11 Sudoeste 0 -- -- 65
2019-02-08 16:00:00 10.1 5 Sur 12 Sudoeste 0 -- -- 66
2019-02-08 15:00:00 10 3 Sudoeste 17 Sur 0 -- -- 70
2019-02-08 14:00:00 8.8 3 Oeste 12 Sudoeste 0 -- -- 75
2019-02-08 13:00:00 8 4 Sur 9 Sur 0 -- -- 75
2019-02-08 12:00:00 8.1 3 Sudeste 9 Sudeste 0 -- -- 73
2019-02-08 11:00:00 6.9 4 Sur 8 Sur 0 -- -- 73
2019-02-08 10:00:00 5.7 2 Sur 6 Noroeste 0 -- -- 76
2019-02-08 09:00:00 3.8 0 Calma 6 Sudoeste 0 -- -- 82
2019-02-08 08:00:00 4.2 3 Sur 9 Norte 0 -- -- 76
2019-02-08 07:00:00 4.9 2 Sudeste 9 Norte 0 -- -- 66
2019-02-08 06:00:00 4.9 0 Calma 9 Sur 0 -- -- 65
2019-02-08 05:00:00 4.7 0 Calma 7 Norte 0 -- -- 67
2019-02-08 04:00:00 4.3 2 Norte 7 Norte 0 -- -- 74
2019-02-08 03:00:00 5.3 4 Norte 8 Oeste 0 -- -- 65
2019-02-08 02:00:00 4.7 6 Norte 9 Noroeste 0 -- -- 73
2019-02-08 01:00:00 3.4 2 Norte 6 Sudoeste 0 -- -- 88
2019-02-08 00:00:00 2.8 0 Calma 3 Nordeste 0 -- -- 94
2019-02-07 23:00:00 3.1 2 Norte 3 Norte 0 -- -- 94
2019-02-07 22:00:00 2.9 0 Calma 3 Norte 0 -- -- 96
2019-02-07 21:00:00 3.7 2 Sudoeste 8 Oeste 0 -- -- 94
2019-02-07 20:00:00 3.7 0 Calma 6 Nordeste 0 -- -- 96
2019-02-07 19:00:00 3.7 0 Calma 4 Sur 0 -- -- 95
2019-02-07 18:00:00 4.1 2 Sudeste 9 Este 0 -- -- 94
2019-02-07 17:00:00 4.6 3 Nordeste 6 Nordeste 0 -- -- 93
2019-02-07 16:00:00 5.5 0 Calma 6 Sudeste 0 -- -- 89
2019-02-07 15:00:00 6 3 Nordeste 8 Sur 0 -- -- 87
2019-02-07 14:00:00 5.6 3 Sudeste 6 Sudeste 0 -- -- 90
2019-02-07 13:00:00 5.2 4 Sudeste 10 Este 0 -- -- 92
2019-02-07 12:00:00 5.3 3 Sudeste 13 Sudoeste 0 -- -- 93
2019-02-07 11:00:00 4.6 8 Oeste 25 Noroeste 0 -- -- 92
2019-02-07 10:00:00 5.1 14 Noroeste 24 Oeste 0.2 -- -- 89
2019-02-07 09:00:00 5.5 11 Oeste 26 Sudoeste 0 -- -- 87
2019-02-07 08:00:00 6 12 Oeste 24 Oeste 0 -- -- 84
2019-02-07 07:00:00 6.2 7 Oeste 27 Oeste 0 -- -- 81
2019-02-07 06:00:00 5.7 4 Norte 8 Nordeste 0 -- -- 82
2019-02-07 05:00:00 5.7 0 Calma 22 Noroeste 0 -- -- 84
2019-02-07 04:00:00 6.5 17 Oeste 25 Noroeste 0 -- -- 79
2019-02-07 03:00:00 7.3 9 Noroeste 25 Oeste 0 -- -- 72
2019-02-07 02:00:00 7.8 12 Oeste 23 Oeste 0 -- -- 68
2019-02-07 01:00:00 8.2 12 Oeste 21 Oeste 0 -- -- 63
2019-02-07 00:00:00 8 9 Oeste 13 Oeste 0 -- -- 71
2019-02-06 23:00:00 7.4 0 Calma 5 Norte 0 -- -- 66
2019-02-06 22:00:00 7.6 3 Norte 6 Norte 0 -- -- 66
2019-02-06 21:00:00 8.5 4 Norte 7 Norte 0 -- -- 62
2019-02-06 20:00:00 8.8 2 Noroeste 7 Norte 0 -- -- 62
2019-02-06 19:00:00 9 0 Calma 4 Sur 0 -- -- 63
2019-02-06 18:00:00 10 0 Calma 7 Sudoeste 0 -- -- 61
2019-02-06 17:00:00 11.3 4 Sudoeste 7 Sur 0 -- -- 59
2019-02-06 16:00:00 12.9 0 Calma 12 Sudoeste 0 -- -- 52
2019-02-06 15:00:00 13.7 3 Sur 11 Sur 0 -- -- 50
2019-02-06 14:00:00 12.8 0 Calma 7 Sur 0 -- -- 58
2019-02-06 13:00:00 12.4 0 Calma 3 Nordeste 0 -- -- 50
2019-02-06 12:00:00 11.7 0 Calma 4 Nordeste 0 -- -- 57
2019-02-06 11:00:00 9.3 3 Norte 6 Norte 0 -- -- 61
2019-02-06 10:00:00 8.2 0 Calma 4 Norte 0 -- -- 69
2019-02-06 09:00:00 6.4 2 Norte 5 Norte 0 -- -- 75
2019-02-06 08:00:00 6.1 3 Norte 4 Norte 0 -- -- 75
2019-02-06 07:00:00 6.4 0 Calma 3 Oeste 0 -- -- 78
2019-02-06 06:00:00 6.6 2 Norte 4 Noroeste 0 -- -- 75
2019-02-06 05:00:00 6.5 0 Calma 4 Sudoeste 0 -- -- 73
2019-02-06 04:00:00 6.7 0 Calma 3 Sudeste 0 -- -- 70
2019-02-06 03:00:00 7.1 2 Sudoeste 7 Sudoeste 0 -- -- 68
2019-02-06 02:00:00 6.7 0 Calma 8 Norte 0 -- -- 73
2019-02-06 01:00:00 6.5 3 Este 5 Norte 0 -- -- 73
2019-02-06 00:00:00 5.9 2 Oeste 4 Sudoeste 0 -- -- 78
2019-02-05 23:00:00 5.6 0 Calma 4 Sur 0 -- -- 84
2019-02-05 22:00:00 5.1 0 Calma 3 Noroeste 0 -- -- 93
2019-02-05 21:00:00 5.2 0 Calma 3 Nordeste 0 -- -- 92
2019-02-05 20:00:00 5.6 0 Calma 4 Noroeste 0 -- -- 91
2019-02-05 19:00:00 6.1 3 Noroeste 9 Norte 0 -- -- 88
2019-02-05 18:00:00 7.6 0 Calma 4 Sur 0 -- -- 83
2019-02-05 17:00:00 9.6 3 Sur 9 Sudeste 0 -- -- 74
2019-02-05 16:00:00 10.9 4 Sur 8 Sur 0 -- -- 70
2019-02-05 15:00:00 9.5 2 Sudeste 9 Nordeste 0 -- -- 73
2019-02-05 14:00:00 8.8 7 Este 12 Este 0 -- -- 72
2019-02-05 13:00:00 10.3 2 Sudoeste 8 Sur 0 -- -- 69
2019-02-05 12:00:00 9.6 3 Este 5 Sur 0 -- -- 70
2019-02-05 11:00:00 8.6 0 Calma 3 Este 0.2 -- -- 74
2019-02-05 10:00:00 6.7 0 Calma 15 Oeste 0 -- -- 81
2019-02-05 09:00:00 5.8 10 Oeste 15 Oeste 0 -- -- 86
2019-02-05 08:00:00 5.8 0 Calma 6 Norte 0 -- -- 85
2019-02-05 07:00:00 5.7 0 Calma 13 Noroeste 0 -- -- 85
2019-02-05 06:00:00 6.4 15 Noroeste 23 Noroeste 0 -- -- 84
2019-02-05 05:00:00 6.7 14 Noroeste 23 Oeste 0 -- -- 84
2019-02-05 04:00:00 6.7 12 Oeste 21 Oeste 0 -- -- 83
2019-02-05 03:00:00 6.1 0 Calma 15 Oeste 0 -- -- 89
2019-02-05 02:00:00 6.6 11 Noroeste 17 Oeste 0 -- -- 86
2019-02-05 01:00:00 6.7 11 Oeste 22 Oeste 0 -- -- 88
2019-02-05 00:00:00 6.8 16 Oeste 25 Oeste 0 -- -- 87
2019-02-04 23:00:00 7.1 15 Oeste 27 Oeste 0 -- -- 84
2019-02-04 22:00:00 7.3 15 Oeste 27 Oeste 0 -- -- 81
2019-02-04 21:00:00 7.1 16 Oeste 29 Oeste 0 -- -- 83
2019-02-04 20:00:00 7 17 Oeste 33 Oeste 0 -- -- 85
2019-02-04 19:00:00 7 17 Oeste 37 Oeste -- -- -- 82
2019-02-04 18:00:00 8 10 Oeste 15 Noroeste -- -- -- 70
2019-02-04 17:00:00 8.3 7 Oeste 24 Oeste -- -- -- 69
2019-02-04 16:00:00 8.8 15 Oeste 24 Oeste -- -- -- 70
2019-02-04 15:00:00 9.5 10 Oeste 27 Oeste -- -- -- 68
2019-02-04 14:00:00 8.5 12 Oeste 28 Oeste -- -- -- 69
2019-02-04 13:00:00 7.9 17 Noroeste 24 Noroeste -- -- -- 69
2019-02-04 12:00:00 8.6 6 Sudoeste 20 Oeste -- -- -- 49
2019-02-04 11:00:00 7.9 6 Noroeste 24 Oeste -- -- -- 56
2019-02-04 10:00:00 6.8 8 Oeste 15 Sudoeste -- -- -- 46
2019-02-04 09:00:00 5.2 3 Sur 18 Noroeste 0.2 -- -- 35
2019-02-04 08:00:00 3.9 2 Noroeste 9 Nordeste 0.2 -- -- 38
2019-02-04 07:00:00 4.1 2 Este 30 Oeste 0.2 -- -- 35
2019-02-04 06:00:00 2.5 3 Sur 16 Oeste 0.2 -- -- 38
2019-02-04 05:00:00 2.3 5 Nordeste 9 Nordeste 0 -- -- 41
2019-02-04 04:00:00 1.8 6 Norte 9 Norte 0 -- -- 40
2019-02-04 03:00:00 1 3 Sudoeste 6 Oeste 0.2 -- -- 40
2019-02-04 02:00:00 0.8 3 Norte 8 Norte 0 -- -- 51
2019-02-04 01:00:00 1 3 Norte 8 Norte 0 -- -- 49
2019-02-04 00:00:00 0.2 0 Calma 10 Norte 0.2 -- -- 61
2019-02-03 23:00:00 -0.4 2 Norte 5 Norte 0 -- -- 70
2019-02-03 22:00:00 -0.7 3 Norte 8 Norte 0.2 -- -- 78
2019-02-03 21:00:00 -0.1 2 Norte 6 Noroeste 0.2 -- -- 65
2019-02-03 20:00:00 0 0 Calma 6 Este 0.2 -- -- 77
2019-02-03 19:00:00 0.4 3 Norte 5 Noroeste 0.8 -- -- 75
2019-02-03 18:00:00 1.5 0 Calma 6 Norte 3.6 -- -- 71
2019-02-03 17:00:00 3.4 2 Nordeste 8 Sudoeste 5 -- -- 64
2019-02-03 16:00:00 4 4 Oeste 15 Sudoeste 2.2 -- -- 62
2019-02-03 15:00:00 3 7 Sudoeste 22 Sudoeste 1.4 -- -- 68
2019-02-03 14:00:00 1.4 17 Oeste 25 Oeste 0.8 -- -- 76
2019-02-03 13:00:00 1.5 19 Oeste 28 Sudoeste 1.4 -- -- 76
2019-02-03 12:00:00 0.8 12 Oeste 37 Oeste 0.6 -- -- 79
2019-02-03 11:00:00 0.5 24 Sudoeste 36 Sudoeste 1 -- -- 79
2019-02-03 10:00:00 0.1 14 Oeste 25 Oeste 0 -- -- 79
2019-02-03 09:00:00 -0.7 14 Oeste 27 Sudoeste 0 -- -- 83
2019-02-03 08:00:00 -0.7 9 Oeste 24 Oeste 0 -- -- 87
2019-02-03 07:00:00 -1 11 Oeste 35 Oeste 0 -- -- 88
2019-02-03 06:00:00 -0.6 16 Oeste 46 Oeste 0 -- -- 86
2019-02-03 05:00:00 -1 10 Oeste 31 Sudoeste 0 -- -- 89
2019-02-03 04:00:00 -0.7 8 Oeste 29 Oeste 0 -- -- 91
2019-02-03 03:00:00 -1.1 18 Oeste 49 Oeste 0 -- -- 93
2019-02-03 02:00:00 -0.8 17 Oeste 43 Sudoeste 0 -- -- 90
2019-02-03 01:00:00 -0.8 22 Oeste 47 Sudoeste 0 -- -- 89
2019-02-03 00:00:00 -0.5 9 Oeste 33 Norte 0 -- -- 93
2019-02-02 23:00:00 -0.4 13 Noroeste 51 Sudoeste 0 -- -- 92
2019-02-02 22:00:00 -0.6 29 Sudoeste 51 Sudoeste 0.2 -- -- 92
2019-02-02 21:00:00 -0.7 17 Sudoeste 53 Oeste 0 -- -- 93
2019-02-02 20:00:00 -1.1 13 Oeste 63 Sudoeste 0 -- -- 97
2019-02-02 19:00:00 -0.6 38 Sudoeste 63 Oeste 0 -- -- 93
2019-02-02 18:00:00 -0.9 18 Oeste 45 Sudoeste 0 -- -- 97
2019-02-02 17:00:00 -0.7 8 Oeste 54 Oeste 0.2 -- -- 95
2019-02-02 16:00:00 -0.3 24 Oeste 50 Sudoeste 0.2 -- -- 93
2019-02-02 15:00:00 -0.4 19 Oeste 53 Sudoeste 0.2 -- -- 91
2019-02-02 14:00:00 -0.4 17 Oeste 48 Sudoeste 0 -- -- 94
2019-02-02 13:00:00 -0.6 7 Noroeste 35 Sudoeste 0 -- -- 97
2019-02-02 12:00:00 -1.5 12 Oeste 48 Oeste 0 -- -- 96
2019-02-02 11:00:00 -1 17 Oeste 43 Sudoeste 0 -- -- 95
2019-02-02 10:00:00 -1.8 24 Sudoeste 58 Sudoeste 0 -- -- 96
2019-02-02 09:00:00 -1.1 17 Oeste 68 Oeste 0 -- -- 96
2019-02-02 08:00:00 -1.1 31 Oeste 81 Sudoeste 0 -- -- 96
2019-02-02 07:00:00 -0.8 55 Sudoeste 90 Oeste 0 -- -- 95
2019-02-02 06:00:00 -0.9 56 Sudoeste 88 Oeste 0.6 -- -- 96
2019-02-02 05:00:00 -0.8 9 Oeste 57 Oeste 0 -- -- 98
2019-02-02 04:00:00 -0.8 38 Sudoeste 67 Oeste 0 -- -- 98
2019-02-02 03:00:00 -0.2 24 Oeste 55 Oeste 0 -- -- 96
2019-02-02 02:00:00 0.2 18 Oeste 88 Oeste 0 -- -- 96
2019-02-02 01:00:00 -0.1 15 Oeste 62 Sudoeste 0.2 -- -- 97
2019-02-02 00:00:00 0.5 37 Sudoeste 73 Oeste 0.8 -- -- 94
2019-02-01 23:00:00 1.1 15 Oeste 59 Sudoeste 3.2 -- -- 93
2019-02-01 22:00:00 1.3 31 Oeste 85 Sudoeste 3.6 -- -- 93
2019-02-01 21:00:00 0.9 23 Oeste 58 Sudoeste 0.4 -- -- 91
2019-02-01 20:00:00 0.8 26 Sudoeste 48 Sudoeste 0 -- -- 89
2019-02-01 19:00:00 1.3 21 Oeste 38 Noroeste 0 -- -- 79
2019-02-01 18:00:00 3.1 2 Nordeste 31 Oeste 0 -- -- 60
2019-02-01 17:00:00 3.5 9 Oeste 34 Sudoeste 0 -- -- 61
2019-02-01 16:00:00 4.5 3 Este 10 Este 0 -- -- 79
2019-02-01 15:00:00 2.9 2 Este 19 Oeste 0 -- -- 88
2019-02-01 14:00:00 1.8 13 Oeste 35 Noroeste 0 -- -- 82
2019-02-01 13:00:00 3.4 10 Norte 32 Noroeste 0 -- -- 70
2019-02-01 12:00:00 3.2 4 Nordeste 10 Sudeste 0 -- -- 81
2019-02-01 11:00:00 2.1 2 Sudeste 35 Oeste 0 -- -- 86
2019-02-01 10:00:00 4 13 Oeste 36 Sudoeste 0 -- -- 56
2019-02-01 09:00:00 4.5 14 Oeste 35 Sudoeste 0 -- -- 44
2019-02-01 08:00:00 4.6 16 Sudoeste 30 Sudoeste 0 -- -- 43
2019-02-01 07:00:00 5 23 Sudoeste 53 Sur 0 -- -- 52
2019-02-01 06:00:00 4.7 21 Oeste 37 Sudoeste 0 -- -- 52
2019-02-01 05:00:00 3.4 5 Nordeste 15 Nordeste 0 -- -- 91
2019-02-01 04:00:00 3.8 5 Sudoeste 11 Nordeste 0 -- -- 95
2019-02-01 03:00:00 4.1 4 Norte 9 Oeste 0 -- -- 89
2019-02-01 02:00:00 4.4 5 Sudoeste 7 Sudoeste 0 -- -- 95
2019-02-01 01:00:00 4.6 2 Sur 7 Noroeste 0 -- -- 92
2019-02-01 00:00:00 4.9 3 Sudoeste 11 Este 0 -- -- 93
2019-01-31 23:00:00 5.4 9 Oeste 28 Noroeste 0 -- -- 82
2019-01-31 22:00:00 5.2 6 Sur 20 Noroeste 0.4 -- -- 97
2019-01-31 21:00:00 6.2 5 Este 12 Nordeste 0 -- -- 98
2019-01-31 20:00:00 6.4 4 Nordeste 12 Este 0.2 -- -- 97
2019-01-31 19:00:00 7.2 2 Sudeste 6 Sur 1.4 -- -- 96
2019-01-31 18:00:00 7.9 3 Sudoeste 10 Sudoeste 3.4 -- -- 96
2019-01-31 17:00:00 8.6 3 Nordeste 10 Sur 0.4 -- -- 94
2019-01-31 16:00:00 9.6 3 Sur 25 Nordeste 0.2 -- -- 89
2019-01-31 15:00:00 11.7 4 Sur 12 Sudoeste 0 -- -- 76
2019-01-31 14:00:00 11.7 8 Nordeste 17 Este 0 -- -- 72
2019-01-31 13:00:00 11.1 8 Este 32 Oeste 0 -- -- 73
2019-01-31 12:00:00 11.7 20 Oeste 46 Oeste 0 -- -- 65
2019-01-31 11:00:00 10.7 26 Sudoeste 48 Sudoeste 0 -- -- 70
2019-01-31 10:00:00 9.9 11 Sudoeste 46 Sudoeste 0 -- -- 75
2019-01-31 09:00:00 8.9 19 Sudoeste 40 Oeste 0.2 -- -- 78
2019-01-31 08:00:00 6.4 6 Nordeste 14 Este 1.6 -- -- 91
2019-01-31 07:00:00 6.9 5 Nordeste 31 Oeste 0.2 -- -- 88
2019-01-31 06:00:00 8.6 18 Oeste 41 Oeste 0.8 -- -- 79
2019-01-31 05:00:00 8.8 22 Sudoeste 49 Oeste 1 -- -- 79
2019-01-31 04:00:00 8.7 30 Sudoeste 51 Oeste 0.6 -- -- 82
2019-01-31 03:00:00 7.4 21 Sudoeste 35 Oeste 0.6 -- -- 91
2019-01-31 02:00:00 5.9 5 Este 17 Noroeste 1.8 -- -- 92
2019-01-31 01:00:00 6.5 6 Oeste 34 Sudoeste 3 -- -- 88
2019-01-31 00:00:00 6.6 18 Sudoeste 53 Oeste 1.4 -- -- 81
2019-01-30 23:00:00 6.2 19 Oeste 44 Oeste 1.4 -- -- 81
2019-01-30 22:00:00 4.6 10 Oeste 26 Sudoeste 0.6 -- -- 90
2019-01-30 21:00:00 3.2 4 Nordeste 10 Nordeste 1.2 -- -- 93
2019-01-30 20:00:00 3.1 4 Norte 10 Norte 1.6 -- -- 92
2019-01-30 19:00:00 3.6 7 Nordeste 9 Nordeste 0.8 -- -- 89
2019-01-30 18:00:00 3.6 3 Norte 7 Norte 0.8 -- -- 86
2019-01-30 17:00:00 4.2 3 Sudoeste 20 Oeste 0.2 -- -- 81
2019-01-30 16:00:00 5.6 2 Sur 8 Sudeste 0 -- -- 59
2019-01-30 15:00:00 5.4 2 Nordeste 7 Nordeste 0 -- -- 57
2019-01-30 14:00:00 5.6 3 Este 9 Sudeste 0 -- -- 59
2019-01-30 13:00:00 4.7 2 Nordeste 10 Este 0 -- -- 63
2019-01-30 12:00:00 4.5 5 Nordeste 12 Sudoeste 0 -- -- 60
2019-01-30 11:00:00 4 6 Sudoeste 33 Oeste 0 -- -- 55
2019-01-30 10:00:00 2.6 14 Oeste 30 Oeste 0 -- -- 60
2019-01-30 09:00:00 1.9 18 Oeste 42 Sudoeste 0 -- -- 67
2019-01-30 08:00:00 1.7 21 Oeste 45 Sudoeste 0 -- -- 69
2019-01-30 07:00:00 1.7 18 Oeste 41 Sudoeste 0 -- -- 71
2019-01-30 06:00:00 1.8 23 Oeste 45 Sudoeste 0 -- -- 66
2019-01-30 05:00:00 1.9 23 Oeste 48 Oeste 0 -- -- 71
2019-01-30 04:00:00 1.8 30 Oeste 46 Sudoeste 0 -- -- 72
2019-01-30 03:00:00 1.6 32 Sudoeste 58 Oeste 0.2 -- -- 79
2019-01-30 02:00:00 1.4 31 Sudoeste 50 Sudoeste 0.2 -- -- 83
2019-01-30 01:00:00 1.2 31 Oeste 54 Sudoeste 0 -- -- 85
2019-01-30 00:00:00 0.6 26 Oeste 52 Oeste 0 -- -- 86
2019-01-29 23:00:00 0.8 28 Oeste 68 Oeste 0 -- -- 84
2019-01-29 22:00:00 0.5 34 Sudoeste 62 Sudoeste 0 -- -- 92
2019-01-29 21:00:00 1.9 43 Sudoeste 82 Sudoeste 0 -- -- 78
2019-01-29 20:00:00 1.4 57 Sudoeste 89 Sudoeste 1.2 -- -- 87
2019-01-29 19:00:00 2.1 40 Sudoeste 68 Sudoeste 1.6 -- -- 87
2019-01-29 18:00:00 2.5 33 Sudoeste 83 Sudoeste 0.8 -- -- 86
2019-01-29 17:00:00 3.4 48 Sudoeste 87 Sudoeste 1.2 -- -- 83
2019-01-29 16:00:00 3.3 41 Sudoeste 85 Sudoeste 4.6 -- -- 85
2019-01-29 15:00:00 5.1 34 Sudoeste 104 Oeste 0.6 -- -- 77
2019-01-29 14:00:00 5.6 48 Sudoeste 86 Oeste 3 -- -- 82
2019-01-29 13:00:00 6.3 24 Sudoeste 52 Sudoeste 1 -- -- 81
2019-01-29 12:00:00 6.9 28 Oeste 47 Sudoeste 0.2 -- -- 74
2019-01-29 11:00:00 6.9 19 Sudoeste 41 Sudoeste 0 -- -- 67
2019-01-29 10:00:00 7.1 18 Sudoeste 36 Oeste 0 -- -- 60
2019-01-29 09:00:00 4.9 4 Nordeste 24 Sudoeste 0 -- -- 76
2019-01-29 08:00:00 5.9 20 Sudoeste 35 Oeste 0 -- -- 77
2019-01-29 07:00:00 3.9 5 Oeste 17 Sur 0 -- -- 82
2019-01-29 06:00:00 3.4 3 Nordeste 15 Noroeste 0 -- -- 75
2019-01-29 05:00:00 3.8 7 Oeste 20 Oeste 0 -- -- 72
2019-01-29 04:00:00 3.6 10 Oeste 23 Sudoeste 0 -- -- 74
2019-01-29 03:00:00 3.7 15 Sudoeste 40 Sudoeste 0 -- -- 73
2019-01-29 02:00:00 3.7 15 Oeste 39 Oeste 0 -- -- 76
2019-01-29 01:00:00 3.4 22 Oeste 41 Oeste 0 -- -- 80
2019-01-29 00:00:00 3.5 24 Oeste 40 Oeste 0 -- -- 77
2019-01-28 23:00:00 3.4 30 Oeste 44 Oeste 0 -- -- 77
2019-01-28 22:00:00 3.4 31 Oeste 54 Sudoeste 0 -- -- 76
2019-01-28 21:00:00 3.4 34 Oeste 74 Oeste 0.2 -- -- 76
2019-01-28 20:00:00 3.6 35 Oeste 68 Oeste 0 -- -- 83
2019-01-28 19:00:00 3.5 40 Oeste 72 Sudoeste 0 -- -- 84
2019-01-28 18:00:00 3.2 39 Oeste 75 Oeste 0.4 -- -- 89
2019-01-28 17:00:00 3.5 46 Oeste 81 Oeste 0 -- -- 85
2019-01-28 16:00:00 3.3 42 Oeste 77 Sudoeste 1.2 -- -- 90
2019-01-28 15:00:00 4.6 44 Oeste 77 Oeste 0 -- -- 78
2019-01-28 14:00:00 3.6 41 Oeste 80 Sudoeste 2.6 -- -- 87
2019-01-28 13:00:00 3.5 38 Oeste 79 Sudoeste 1.8 -- -- 90
2019-01-28 12:00:00 4.2 50 Oeste 95 Oeste 1.6 -- -- 86
2019-01-28 11:00:00 4 43 Oeste 78 Oeste 3.2 -- -- 92
2019-01-28 10:00:00 4.5 54 Oeste 92 Oeste 2 -- -- 88
2019-01-28 09:00:00 4.8 48 Oeste 112 Oeste 1.4 -- -- 87
2019-01-28 08:00:00 5.4 48 Oeste 97 Oeste 0 -- -- 79
2019-01-28 07:00:00 5.4 45 Oeste 87 Oeste 0.4 -- -- 79
2019-01-28 06:00:00 4.8 50 Oeste 83 Oeste 0 -- -- 88
2019-01-28 05:00:00 4.8 45 Oeste 87 Oeste 0.2 -- -- 88
2019-01-28 04:00:00 4.7 46 Oeste 87 Oeste 0.6 -- -- 87
2019-01-28 03:00:00 4.3 50 Oeste 80 Oeste 0.6 -- -- 87
2019-01-28 02:00:00 4 33 Oeste 66 Oeste 0.2 -- -- 85
2019-01-28 01:00:00 3 35 Oeste 53 Oeste 0 -- -- 85
2019-01-28 00:00:00 1.9 26 Oeste 54 Oeste 0 -- -- 86
2019-01-27 23:00:00 2.3 32 Oeste 58 Oeste 0.2 -- -- 81
2019-01-27 22:00:00 2.1 32 Oeste 66 Oeste 0 -- -- 84
2019-01-27 21:00:00 2.1 30 Oeste 53 Oeste 0 -- -- 82
2019-01-27 20:00:00 2.3 27 Oeste 57 Oeste 0.2 -- -- 82
2019-01-27 19:00:00 1.9 27 Noroeste 57 Oeste 0.2 -- -- 86
2019-01-27 18:00:00 2.1 38 Oeste 67 Oeste 0 -- -- 85
2019-01-27 17:00:00 2.6 31 Oeste 68 Oeste 0 -- -- 80
2019-01-27 16:00:00 2.9 33 Oeste 70 Oeste 0 -- -- 75
2019-01-27 15:00:00 1.8 40 Oeste 69 Oeste 2.4 -- -- 87
2019-01-27 14:00:00 1.2 23 Oeste 67 Oeste 0.8 -- -- 91
2019-01-27 13:00:00 2.5 42 Oeste 76 Oeste 1 -- -- 85
2019-01-27 12:00:00 2.1 29 Oeste 88 Oeste 0.6 -- -- 85
2019-01-27 11:00:00 2 49 Oeste 75 Oeste 1.4 -- -- 87
2019-01-27 10:00:00 2.4 49 Oeste 83 Oeste 0.4 -- -- 86
2019-01-27 09:00:00 2.6 47 Oeste 74 Oeste 0.6 -- -- 83
2019-01-27 08:00:00 2.7 35 Oeste 60 Oeste 0 -- -- 81
2019-01-27 07:00:00 3.1 31 Oeste 78 Oeste 0.4 -- -- 77
2019-01-27 06:00:00 3.2 34 Oeste 66 Oeste 0 -- -- 83
2019-01-27 05:00:00 3.7 35 Oeste 72 Oeste 2 -- -- 82
2019-01-27 04:00:00 4 24 Oeste 64 Oeste 1.8 -- -- 89
2019-01-27 03:00:00 5 23 Oeste 51 Sudoeste 0.8 -- -- 90
2019-01-27 02:00:00 5.8 25 Noroeste 44 Oeste 0.2 -- -- 83
2019-01-27 01:00:00 8.5 19 Noroeste 58 Oeste 0 -- -- 58
2019-01-27 00:00:00 7.6 17 Oeste 38 Oeste 0 -- -- 58
2019-01-26 23:00:00 6 8 Sudoeste 27 Norte 0 -- -- 65
2019-01-26 22:00:00 5.9 4 Nordeste 10 Norte 0 -- -- 66
2019-01-26 21:00:00 7.9 3 Oeste 18 Norte 0 -- -- 49
2019-01-26 20:00:00 8 10 Noroeste 26 Noroeste 0 -- -- 48
2019-01-26 19:00:00 8.2 14 Noroeste 34 Noroeste 0 -- -- 49
2019-01-26 18:00:00 6.5 3 Noroeste 12 Noroeste 0 -- -- 71
2019-01-26 17:00:00 8.4 4 Sudoeste 9 Sur 0 -- -- 74
2019-01-26 16:00:00 11.7 2 Sur 18 Oeste 0 -- -- 63
2019-01-26 15:00:00 11.7 11 Oeste 24 Sudoeste 0 -- -- 43
2019-01-26 14:00:00 8.3 6 Sudoeste 11 Sudoeste 0 -- -- 72
2019-01-26 13:00:00 8.1 4 Sudoeste 9 Sudoeste 0 -- -- 75
2019-01-26 12:00:00 7.1 2 Sudoeste 5 Sudoeste 0 -- -- 80
2019-01-26 11:00:00 5.2 3 Sudoeste 8 Sudoeste 0 -- -- 81
2019-01-26 10:00:00 4 0 Calma 4 Sur 0 -- -- 87
2019-01-26 09:00:00 2 0 Calma 4 Nordeste 0 -- -- 90
2019-01-26 08:00:00 1.8 2 Oeste 3 Oeste 0 -- -- 93
2019-01-26 07:00:00 2.2 0 Calma 5 Norte 0 -- -- 91
2019-01-26 06:00:00 2.5 2 Nordeste 5 Norte 0 -- -- 90
2019-01-26 05:00:00 2.6 3 Nordeste 7 Norte 0 -- -- 90
2019-01-26 04:00:00 2.9 8 Norte 11 Norte 0 -- -- 89
2019-01-26 03:00:00 3.4 0 Calma 4 Sur 0 -- -- 90
2019-01-26 02:00:00 3.6 0 Calma 5 Norte 0 -- -- 89
2019-01-26 01:00:00 3.9 3 Sudoeste 12 Norte 0 -- -- 84
2019-01-26 00:00:00 3.9 9 Sudoeste 13 Sudoeste 0 -- -- 84
2019-01-25 23:00:00 4.2 2 Noroeste 18 Oeste 0 -- -- 84
2019-01-25 22:00:00 4.7 11 Oeste 20 Oeste 0 -- -- 82
2019-01-25 21:00:00 4.6 5 Oeste 14 Norte 0 -- -- 87
2019-01-25 20:00:00 4.5 8 Norte 17 Noroeste 0 -- -- 91
2019-01-25 19:00:00 4.6 12 Noroeste 28 Oeste 0 -- -- 93
2019-01-25 18:00:00 5.2 15 Noroeste 33 Oeste 0 -- -- 90
2019-01-25 17:00:00 5.8 15 Oeste 29 Oeste 0 -- -- 88
2019-01-25 16:00:00 7 17 Oeste 36 Oeste 0 -- -- 79
2019-01-25 15:00:00 6.6 12 Noroeste 31 Noroeste 0 -- -- 81
2019-01-25 14:00:00 6.5 22 Oeste 41 Oeste 0 -- -- 85
2019-01-25 13:00:00 6.6 15 Oeste 34 Oeste 0 -- -- 81
2019-01-25 12:00:00 5.2 26 Oeste 41 Oeste 0 -- -- 85
2019-01-25 11:00:00 4.8 21 Noroeste 58 Oeste 0 -- -- 92
2019-01-25 10:00:00 5.2 33 Oeste 54 Oeste 0 -- -- 91
2019-01-25 09:00:00 5.2 30 Oeste 49 Oeste 0.2 -- -- 92
2019-01-25 08:00:00 5.4 27 Oeste 51 Oeste 0 -- -- 93
2019-01-25 07:00:00 5.5 31 Oeste 50 Oeste 0 -- -- 93
2019-01-25 06:00:00 5.5 29 Oeste 47 Oeste 0 -- -- 92
2019-01-25 05:00:00 5.7 29 Oeste 55 Oeste 0 -- -- 92
2019-01-25 04:00:00 5.9 34 Oeste 51 Oeste 0 -- -- 93
2019-01-25 03:00:00 5.8 22 Oeste 57 Oeste 0 -- -- 94
2019-01-25 02:00:00 6.2 26 Oeste 45 Oeste 0 -- -- 90
2019-01-25 01:00:00 6.1 32 Oeste 49 Oeste 0.2 -- -- 90
2019-01-25 00:00:00 5.8 31 Oeste 58 Oeste 0.4 -- -- 93
2019-01-24 23:00:00 6 29 Oeste 58 Oeste 0.8 -- -- 93
2019-01-24 22:00:00 6.4 37 Oeste 54 Oeste 0.2 -- -- 93
2019-01-24 21:00:00 6.4 32 Oeste 55 Oeste 0.2 -- -- 93
2019-01-24 20:00:00 6.4 34 Oeste 58 Oeste 1 -- -- 93
2019-01-24 19:00:00 6.7 35 Oeste 54 Oeste 0.2 -- -- 93
2019-01-24 18:00:00 6.6 37 Oeste 62 Oeste 0.4 -- -- 93
2019-01-24 17:00:00 6.7 23 Oeste 62 Oeste 1.2 -- -- 93
2019-01-24 16:00:00 6.7 34 Oeste 65 Oeste 1.6 -- -- 93
2019-01-24 15:00:00 6.7 22 Oeste 59 Oeste 1.4 -- -- 93
2019-01-24 14:00:00 6.6 30 Oeste 55 Oeste 3 -- -- 93
2019-01-24 13:00:00 6.8 32 Oeste 64 Oeste 2 -- -- 93
2019-01-24 12:00:00 6.6 17 Oeste 49 Sudoeste 4.6 -- -- 94
2019-01-24 11:00:00 6.9 26 Oeste 54 Oeste 3.4 -- -- 94
2019-01-24 10:00:00 6.8 17 Oeste 56 Oeste 3.8 -- -- 94
2019-01-24 09:00:00 7 35 Oeste 63 Sudoeste 2 -- -- 93
2019-01-24 08:00:00 7 20 Oeste 50 Sudoeste 4 -- -- 94
2019-01-24 07:00:00 6.9 16 Oeste 49 Oeste 5.4 -- -- 95
2019-01-24 06:00:00 6.6 11 Noroeste 27 Sudoeste 5.2 -- -- 95
2019-01-24 05:00:00 6.5 6 Oeste 43 Oeste 5.6 -- -- 95
2019-01-24 04:00:00 6.3 21 Oeste 58 Oeste 4.6 -- -- 94
2019-01-24 03:00:00 6.4 17 Oeste 46 Oeste 5.6 -- -- 95
2019-01-24 02:00:00 6.2 22 Oeste 66 Oeste 3.8 -- -- 95
2019-01-24 01:00:00 6.1 31 Oeste 68 Oeste 3.4 -- -- 93
2019-01-24 00:00:00 5.9 36 Oeste 65 Oeste 4 -- -- 93
2019-01-23 23:00:00 5.7 29 Oeste 57 Oeste 3.2 -- -- 93
2019-01-23 22:00:00 5.2 19 Oeste 49 Oeste 4.8 -- -- 94
2019-01-23 21:00:00 5.3 24 Oeste 62 Sudoeste 4.8 -- -- 93
2019-01-23 20:00:00 5 20 Oeste 64 Oeste 2.6 -- -- 93
2019-01-23 19:00:00 5 31 Oeste 66 Oeste 1.6 -- -- 94
2019-01-23 18:00:00 5.7 18 Oeste 74 Oeste 2.8 -- -- 93
2019-01-23 17:00:00 5.6 42 Oeste 76 Oeste 2.4 -- -- 93
2019-01-23 16:00:00 5.5 31 Oeste 81 Sudoeste 2.8 -- -- 94
2019-01-23 15:00:00 5.6 55 Oeste 85 Sudoeste 2.2 -- -- 94
2019-01-23 14:00:00 5.7 32 Oeste 73 Oeste 3.2 -- -- 94
2019-01-23 13:00:00 5.3 31 Oeste 60 Oeste 4 -- -- 94
2019-01-23 12:00:00 5.3 39 Oeste 78 Oeste 3.2 -- -- 94
2019-01-23 11:00:00 5.3 17 Oeste 69 Oeste 2.4 -- -- 95
2019-01-23 10:00:00 5.1 17 Oeste 82 Oeste 1.4 -- -- 94
2019-01-23 09:00:00 5.3 31 Oeste 71 Oeste 2.6 -- -- 94
2019-01-23 08:00:00 5.4 17 Noroeste 81 Oeste 5.6 -- -- 94
2019-01-23 07:00:00 5.8 41 Oeste 83 Oeste 6.2 -- -- 94
2019-01-23 06:00:00 5.4 21 Oeste 85 Sudoeste 4.4 -- -- 94
2019-01-23 05:00:00 5.3 53 Oeste 103 Oeste 2.4 -- -- 92
2019-01-23 04:00:00 4.8 44 Oeste 81 Oeste 2.2 -- -- 89
2019-01-23 03:00:00 3.7 42 Oeste 71 Oeste 2 -- -- 88
2019-01-23 02:00:00 2.6 32 Oeste 62 Oeste 2.8 -- -- 90
2019-01-23 01:00:00 2.8 41 Oeste 64 Oeste 6.6 -- -- 90
2019-01-23 00:00:00 2.3 24 Oeste 52 Oeste 5.6 -- -- 92
2019-01-22 23:00:00 2 23 Oeste 44 Sudoeste 5.4 -- -- 91
2019-01-22 22:00:00 1.5 28 Oeste 47 Oeste 3.2 -- -- 92
2019-01-22 21:00:00 1.2 23 Oeste 49 Oeste 3.2 -- -- 92
2019-01-22 20:00:00 1.4 28 Oeste 53 Oeste 2.4 -- -- 91
2019-01-22 19:00:00 1.5 31 Oeste 57 Oeste 2 -- -- 91
2019-01-22 18:00:00 1.5 30 Oeste 48 Oeste 1.2 -- -- 91
2019-01-22 17:00:00 1 22 Oeste 37 Oeste 1.4 -- -- 92
2019-01-22 16:00:00 1 18 Oeste 49 Oeste 1.6 -- -- 92
2019-01-22 15:00:00 1.3 26 Oeste 45 Sudoeste 1.4 -- -- 91
2019-01-22 14:00:00 1 23 Oeste 54 Oeste 2.2 -- -- 91
2019-01-22 13:00:00 1.6 27 Oeste 61 Oeste 2.2 -- -- 90
2019-01-22 12:00:00 2.6 33 Oeste 62 Oeste 1.8 -- -- 85
2019-01-22 11:00:00 1.9 23 Oeste 48 Oeste 3.4 -- -- 90
2019-01-22 10:00:00 2.1 21 Oeste 40 Oeste 2.4 -- -- 89
2019-01-22 09:00:00 2.4 28 Noroeste 50 Oeste 0.8 -- -- 86
2019-01-22 08:00:00 3.7 31 Noroeste 51 Noroeste 0 -- -- 75
2019-01-22 07:00:00 3.1 24 Oeste 39 Oeste 0.2 -- -- 82
2019-01-22 06:00:00 3.1 18 Oeste 34 Oeste 0 -- -- 77
2019-01-22 05:00:00 3.2 15 Oeste 32 Oeste 0 -- -- 73
2019-01-22 04:00:00 2.9 15 Noroeste 26 Oeste 0 -- -- 72
2019-01-22 03:00:00 2.7 13 Noroeste 27 Noroeste 0 -- -- 71
2019-01-22 02:00:00 2.3 9 Oeste 20 Noroeste 0 -- -- 72
2019-01-22 01:00:00 2.1 5 Oeste 16 Oeste 0 -- -- 75
2019-01-22 00:00:00 2.1 11 Oeste 17 Oeste 0 -- -- 75
2019-01-21 23:00:00 1.8 0 Calma 14 Noroeste 0 -- -- 82
2019-01-21 22:00:00 2.3 10 Noroeste 22 Oeste 0 -- -- 75
2019-01-21 21:00:00 2.2 11 Oeste 32 Oeste 0 -- -- 77
2019-01-21 20:00:00 2.3 23 Oeste 37 Oeste 0 -- -- 77
2019-01-21 19:00:00 2.4 10 Oeste 22 Noroeste 0 -- -- 76
2019-01-21 18:00:00 2.4 9 Noroeste 20 Oeste 0 -- -- 80
2019-01-21 17:00:00 2.8 13 Noroeste 23 Oeste 0 -- -- 76
2019-01-21 16:00:00 4.2 14 Oeste 26 Oeste 0 -- -- 66
2019-01-21 15:00:00 4.1 17 Oeste 27 Oeste 0 -- -- 70
2019-01-21 14:00:00 4.5 11 Oeste 26 Oeste 0 -- -- 73
2019-01-21 13:00:00 3.5 8 Oeste 20 Oeste 0 -- -- 78
2019-01-21 12:00:00 2 10 Norte 22 Norte 1.4 -- -- 86
2019-01-21 11:00:00 1.5 14 Oeste 22 Oeste 1.8 -- -- 92
2019-01-21 10:00:00 1.1 14 Oeste 24 Oeste 1.2 -- -- 93
2019-01-21 09:00:00 1.5 6 Oeste 27 Oeste 0.6 -- -- 91
2019-01-21 08:00:00 1.7 14 Oeste 23 Oeste 0.6 -- -- 89
2019-01-21 07:00:00 1.8 13 Noroeste 33 Oeste 1.4 -- -- 88
2019-01-21 06:00:00 0.8 13 Oeste 27 Noroeste 1.4 -- -- 93
2019-01-21 05:00:00 1.2 12 Oeste 30 Oeste 2.6 -- -- 93
2019-01-21 04:00:00 2.2 11 Noroeste 23 Oeste 0.8 -- -- 90
2019-01-21 03:00:00 1.7 5 Noroeste 28 Oeste 2.4 -- -- 91
2019-01-21 02:00:00 2.5 17 Oeste 41 Oeste 0.8 -- -- 89
2019-01-21 01:00:00 2.4 14 Oeste 26 Oeste 0.2 -- -- 91
2019-01-21 00:00:00 1.9 14 Oeste 25 Oeste 2 -- -- 90
2019-01-20 23:00:00 2.8 9 Norte 29 Nordeste 1.2 -- -- 88
2019-01-20 22:00:00 2.1 8 Oeste 29 Oeste 4.2 -- -- 93
2019-01-20 21:00:00 2.3 6 Noroeste 28 Oeste 1.8 -- -- 89
2019-01-20 20:00:00 2.9 21 Oeste 36 Oeste 0.8 -- -- 88
2019-01-20 19:00:00 2.7 10 Noroeste 22 Oeste 0.4 -- -- 90
2019-01-20 18:00:00 2.1 12 Oeste 21 Oeste 2.2 -- -- 92
2019-01-20 17:00:00 2.7 7 Oeste 26 Oeste 3 -- -- 91
2019-01-20 16:00:00 3.5 9 Noroeste 24 Oeste 1.2 -- -- 89
2019-01-20 15:00:00 3.7 8 Noroeste 38 Oeste 0.4 -- -- 88
2019-01-20 14:00:00 3.7 15 Noroeste 36 Sudoeste 0.4 -- -- 90
2019-01-20 13:00:00 3.2 12 Noroeste 26 Oeste 2.2 -- -- 92
2019-01-20 12:00:00 2.9 8 Noroeste 43 Oeste 1 -- -- 90
2019-01-20 11:00:00 2.9 32 Oeste 64 Oeste 1.2 -- -- 90
2019-01-20 10:00:00 2.7 30 Oeste 50 Oeste 0.6 -- -- 89
2019-01-20 09:00:00 2.5 30 Oeste 58 Oeste 1.4 -- -- 89
2019-01-20 08:00:00 2.2 15 Oeste 36 Oeste 1.4 -- -- 90
2019-01-20 07:00:00 2.5 15 Oeste 59 Oeste 1.2 -- -- 91
2019-01-20 06:00:00 2.1 17 Oeste 35 Oeste 3.8 -- -- 91
2019-01-20 05:00:00 2.5 12 Noroeste 32 Oeste 2 -- -- 91
2019-01-20 04:00:00 2.4 22 Oeste 46 Oeste 3.6 -- -- 92
2019-01-20 03:00:00 2.5 15 Oeste 34 Noroeste 2.4 -- -- 92
2019-01-20 02:00:00 2.3 14 Noroeste 30 Oeste 2.4 -- -- 91
2019-01-20 01:00:00 2.7 18 Oeste 28 Oeste 1.8 -- -- 91
2019-01-20 00:00:00 3.5 8 Oeste 19 Oeste 2.6 -- -- 92
2019-01-19 23:00:00 4.2 6 Oeste 21 Oeste 1.8 -- -- 93
2019-01-19 22:00:00 3 2 Norte 5 Noroeste 0 -- -- 94
2019-01-19 21:00:00 3.1 3 Nordeste 19 Noroeste 0.6 -- -- 92
2019-01-19 20:00:00 3.4 4 Norte 13 Oeste 0.6 -- -- 94
2019-01-19 19:00:00 3.2 2 Sudoeste 18 Noroeste 1.2 -- -- 94
2019-01-19 18:00:00 2.6 4 Noroeste 14 Noroeste 2 -- -- 96
2019-01-19 17:00:00 2.3 3 Nordeste 8 Este 1.8 -- -- 95
2019-01-19 16:00:00 2.6 4 Oeste 6 Este 3.8 -- -- 95
2019-01-19 15:00:00 2.8 2 Nordeste 6 Este 2.6 -- -- 92
2019-01-19 14:00:00 3.4 0 Calma 5 Norte 1.6 -- -- 86
2019-01-19 13:00:00 3.8 4 Nordeste 8 Nordeste 0 -- -- 79
2019-01-19 12:00:00 3.6 5 Nordeste 13 Nordeste 0 -- -- 80
2019-01-19 11:00:00 2.7 5 Nordeste 8 Nordeste 0 -- -- 81
2019-01-19 10:00:00 2.1 4 Nordeste 14 Nordeste 0 -- -- 81
2019-01-19 09:00:00 1.6 8 Nordeste 15 Nordeste 0 -- -- 84
2019-01-19 08:00:00 1.3 6 Nordeste 9 Norte 0 -- -- 88
2019-01-19 07:00:00 1.2 3 Nordeste 8 Nordeste 0 -- -- 90
2019-01-19 06:00:00 2.6 0 Calma 6 Oeste 0 -- -- 90
2019-01-19 05:00:00 3.3 7 Noroeste 19 Noroeste 0 -- -- 85
2019-01-19 04:00:00 3.3 6 Oeste 35 Oeste 0.2 -- -- 89
2019-01-19 03:00:00 3.4 15 Oeste 35 Noroeste 0.6 -- -- 88
2019-01-19 02:00:00 3.1 0 Calma 22 Oeste 0.2 -- -- 92
2019-01-19 01:00:00 3.9 11 Oeste 22 Oeste 0 -- -- 90
2019-01-19 00:00:00 3.9 13 Oeste 26 Oeste 0.4 -- -- 90